Maria Stein, OH (45860)

10:52 PM EDT on April 25, 2015 (GMT -0400)
Mangen Rd. | | Change Station
CLOSE
Current Station
Personal Weather Station
Location: Yorkshire, OH
Elevation: 980 ft
Nearby Weather Stations

Elev 980 ft 40.33 °N, 84.50 °W | Updated 39 seconds ago

Overcast
Overcast
40.5 °F
Feels Like 33 °F
N
12.0
Wind Variable Wind from NNE
Gusts 12.0 mph

Today
High -- | Low -- °F
--% Chance of Precip.
Yesterday
High -- | Low -- °F
Precip. -- in
6:45 AM 8:27 PM
Waxing Crescent, 51% visible
Pressure 29.72 in
Visibility 10.0 miles
Clouds Overcast 4500 ft
Windchill 33 °F
Dew Point 38 °F
Humidity 89%
Rainfall 0.38 in
Snow Depth Not available.
UV 0 out of 12
Pollen 6.90 out of 12
Air Quality Not available.
Flu Activity Regional
METAR KVES 260235Z AUTO 05013G18KT 10SM OVC045 05/04 A2972 RMK AO2

More Conditions Fewer Conditions

Pressure 29.72 in
Visibility 10.0 miles
Clouds Overcast 4500 ft
Windchill 33 °F
Dew Point 38 °F
Humidity 89%
Rainfall 0.38 in
Snow Depth Not available.
UV 0 out of 12
Pollen 6.90 out of 12
Air Quality Not available.
Flu Activity Regional
METAR KVES 260235Z AUTO 05013G18KT 10SM OVC045 05/04 A2972 RMK AO2

More Conditions Fewer Conditions

10-Day Weather Forecast

Almanac

Astronomy

Apr. 25, 2015 Rise Set
Actual Time
Civil Twilight
Nautical Twilight
Astronomical Twilight
Moon
Length of Visible Light
Length of Day
Tomorrow will be .
, % of the Moon is Illuminated

Today's Extremes

State Highs State Lows

Community

WunderPhotos

Upload Photos

1,816,909 photos uploaded!

WunderBlogs® & News

Nearby

Air Quality

  Air Quality AQ Index Pollutant
Not available.

Snow Depth

Station Depth Elevation

Earthquake Activity

City Distance Mag. Time & Date
Minimum magnitude displayed is 2.5.

Coastal Water Temperatures

Place Temperature

Stations

Nearby Weather Stations

Station Location Temp. Windchill Dew Point Humidity Wind Precip. Elev Updated Type